createdAt,value
2022-08-08T00:01:13.119Z,2.15
2022-08-08T00:04:28.328Z,2.35
2022-08-08T00:07:12.525Z,2.97
2022-08-08T00:09:55.253Z,2.55
2022-08-08T00:12:31.671Z,3.53
2022-08-08T00:15:24.371Z,2.05
2022-08-08T00:18:21.171Z,1.50
2022-08-08T00:20:58.593Z,1.80
2022-08-08T00:23:43.349Z,3.30
2022-08-08T00:26:30.025Z,1.33
2022-08-08T00:29:17.498Z,2.50
2022-08-08T00:32:20.244Z,1.90
2022-08-08T00:35:21.102Z,1.67
2022-08-08T00:38:32.212Z,2.78
2022-08-08T00:42:08.607Z,2.63
2022-08-08T00:45:29.352Z,1.50
2022-08-08T00:48:29.429Z,3.15
2022-08-08T00:51:08.265Z,1.93
2022-08-08T00:54:13.804Z,1.75
2022-08-08T00:57:12.769Z,1.40
2022-08-08T01:00:31.189Z,1.30
2022-08-08T01:03:57.546Z,2.63
2022-08-08T01:06:27.426Z,2.08
2022-08-08T01:09:34.955Z,2.80
2022-08-08T01:12:37.053Z,2.15
2022-08-08T01:15:53.293Z,2.53
2022-08-08T01:18:52.909Z,1.55
2022-08-08T01:22:12.195Z,1.63
2022-08-08T01:25:00.373Z,2.60
2022-08-08T01:27:46.356Z,1.27
2022-08-08T01:30:25.624Z,2.35
2022-08-08T01:33:27.592Z,0.93
2022-08-08T01:35:54.642Z,1.08
2022-08-08T01:38:37.113Z,1.65
2022-08-08T01:41:18.522Z,1.95
2022-08-08T01:44:03.644Z,2.08
2022-08-08T01:46:41.354Z,1.85
2022-08-08T01:49:22.758Z,2.08
2022-08-08T01:52:29.287Z,1.30
2022-08-08T01:55:25.813Z,1.05
2022-08-08T01:58:10.815Z,1.13
2022-08-08T02:01:17.312Z,2.70
2022-08-08T02:03:54.629Z,2.15
2022-08-08T02:06:36.928Z,1.48
2022-08-08T02:09:17.955Z,1.83
2022-08-08T02:11:59.141Z,1.95
2022-08-08T02:14:55.259Z,1.20
2022-08-08T02:17:44.360Z,1.70
2022-08-08T02:21:00.851Z,2.60
2022-08-08T02:23:35.407Z,2.28
2022-08-08T02:26:17.064Z,1.48
2022-08-08T02:28:59.540Z,1.63
2022-08-08T02:32:05.487Z,2.55
2022-08-08T02:35:07.817Z,2.08
2022-08-08T02:37:52.278Z,1.65
2022-08-08T02:40:29.845Z,1.45
2022-08-08T02:44:37.276Z,5.95
2022-08-08T02:47:10.846Z,3.15
2022-08-08T02:50:19.312Z,1.38
2022-08-08T02:53:24.489Z,1.90
2022-08-08T02:56:15.874Z,4.00
2022-08-08T02:59:25.944Z,2.58
2022-08-08T03:02:30.404Z,3.72
2022-08-08T03:05:45.442Z,1.85
2022-08-08T03:08:38.202Z,3.63
2022-08-08T03:11:25.735Z,2.50
2022-08-08T03:15:59.703Z,3.00
2022-08-08T03:17:39.479Z,1.67
2022-08-08T03:20:13.852Z,1.20
2022-08-08T03:22:47.924Z,2.00
2022-08-08T03:25:18.669Z,2.72
2022-08-08T03:27:57.705Z,1.55
2022-08-08T03:30:24.887Z,1.00
2022-08-08T03:33:56.745Z,2.17
2022-08-08T03:35:58.963Z,1.92
2022-08-08T03:38:57.107Z,0.93
2022-08-08T03:41:43.119Z,0.90
2022-08-08T03:44:00.427Z,1.10
2022-08-08T03:46:32.621Z,1.55
2022-08-08T03:49:09.854Z,1.73
2022-08-08T03:51:57.204Z,1.60
2022-08-08T03:54:41.699Z,2.25
2022-08-08T03:58:29.983Z,2.65
2022-08-08T04:00:11.336Z,1.42
2022-08-08T04:02:51.808Z,1.58
2022-08-08T04:05:28.209Z,1.23
2022-08-08T04:07:57.900Z,1.48
2022-08-08T04:10:26.022Z,3.03
2022-08-08T04:13:00.012Z,1.92
2022-08-08T04:15:38.355Z,2.00
2022-08-08T04:18:06.205Z,2.15
2022-08-08T04:20:36.237Z,1.20
2022-08-08T04:23:07.770Z,1.73
2022-08-08T04:28:36.882Z,2.65
2022-08-08T04:30:55.295Z,3.22
2022-08-08T04:33:24.619Z,4.18
2022-08-08T04:35:53.925Z,1.10
2022-08-08T04:38:23.193Z,1.20
2022-08-08T04:40:51.763Z,1.92
2022-08-08T04:43:22.552Z,1.77
2022-08-08T04:45:59.524Z,1.15
2022-08-08T04:48:26.432Z,1.27
2022-08-08T04:50:53.509Z,1.15
2022-08-08T04:54:27.325Z,1.65
2022-08-08T04:56:07.638Z,1.42
2022-08-08T04:58:35.131Z,1.85
2022-08-08T05:01:09.064Z,2.05
2022-08-08T05:04:11.317Z,4.63
2022-08-08T05:06:28.954Z,4.45
2022-08-08T05:09:02.968Z,4.15
2022-08-08T05:11:39.399Z,6.28
2022-08-08T05:14:12.176Z,6.55
2022-08-08T05:16:52.889Z,3.97
2022-08-08T05:20:12.278Z,25.08
2022-08-08T05:22:13.738Z,13.23
2022-08-08T05:24:48.505Z,7.50
2022-08-08T05:27:16.042Z,3.95
2022-08-08T05:29:42.973Z,5.40
2022-08-08T05:32:09.933Z,11.73
2022-08-08T05:34:49.185Z,3.15
2022-08-08T05:37:39.268Z,3.53
2022-08-08T05:40:14.656Z,4.07
2022-08-08T05:42:46.021Z,2.45
2022-08-08T05:45:25.372Z,4.38
2022-08-08T05:48:08.123Z,6.65
2022-08-08T05:50:36.550Z,5.82
2022-08-08T05:53:53.660Z,6.15
2022-08-08T05:56:10.633Z,7.82
2022-08-08T05:58:58.006Z,13.30
2022-08-08T06:01:56.612Z,6.70
2022-08-08T06:04:24.507Z,4.00
2022-08-08T06:07:01.614Z,12.43
2022-08-08T06:09:58.936Z,4.35
2022-08-08T06:12:30.052Z,10.80
2022-08-08T06:15:02.774Z,4.55
2022-08-08T06:17:51.333Z,10.65
2022-08-08T06:20:20.968Z,7.13
2022-08-08T06:22:49.303Z,7.38
2022-08-08T06:25:18.417Z,8.55
2022-08-08T06:28:07.434Z,8.23
2022-08-08T06:30:36.331Z,8.48
2022-08-08T06:33:13.164Z,13.25
2022-08-08T06:36:07.821Z,17.35
2022-08-08T06:38:39.305Z,6.93
2022-08-08T06:41:13.212Z,5.65
2022-08-08T06:43:47.702Z,12.77
2022-08-08T06:46:24.346Z,6.80
2022-08-08T06:48:51.423Z,11.93
2022-08-08T06:51:22.402Z,20.60
2022-08-08T06:56:24.382Z,9.02
2022-08-08T06:58:51.442Z,8.57
2022-08-08T07:02:18.075Z,12.77
2022-08-08T07:04:40.395Z,9.45
2022-08-08T07:07:11.561Z,8.77
2022-08-08T07:10:08.260Z,15.73
2022-08-08T07:12:43.041Z,7.53
2022-08-08T07:15:31.994Z,4.85
2022-08-08T07:18:36.064Z,6.00
2022-08-08T07:21:18.379Z,5.90
2022-08-08T07:24:09.693Z,10.80
2022-08-08T07:26:40.394Z,8.60
2022-08-08T07:29:08.096Z,4.65
2022-08-08T07:31:38.799Z,5.20
2022-08-08T07:34:08.770Z,8.60
2022-08-08T07:36:42.042Z,3.40
2022-08-08T07:39:22.556Z,9.07
2022-08-08T07:42:05.042Z,4.82
2022-08-08T07:44:37.421Z,21.13
2022-08-08T07:47:05.553Z,10.15
2022-08-08T07:49:32.623Z,17.70
2022-08-08T07:52:02.782Z,3.47
2022-08-08T07:54:43.598Z,5.40
2022-08-08T07:57:27.247Z,7.53
2022-08-08T07:59:59.907Z,5.43
2022-08-08T08:02:53.268Z,3.00
2022-08-08T08:05:45.273Z,3.83
2022-08-08T08:08:34.151Z,3.03
2022-08-08T08:11:04.291Z,3.25
2022-08-08T08:14:07.600Z,3.90
2022-08-08T08:16:40.966Z,2.17
2022-08-08T08:19:14.825Z,3.72
2022-08-08T08:21:57.790Z,2.63
2022-08-08T08:24:30.570Z,9.27
2022-08-08T08:27:00.122Z,5.30
2022-08-08T08:29:30.438Z,5.82
2022-08-08T08:32:03.191Z,8.70
2022-08-08T08:34:32.327Z,2.95
2022-08-08T08:37:08.505Z,7.95
2022-08-08T08:40:00.278Z,3.50
2022-08-08T08:42:32.025Z,6.13
2022-08-08T08:45:21.432Z,10.18
2022-08-08T08:47:58.383Z,2.80
2022-08-08T08:50:33.770Z,2.92
2022-08-08T08:53:27.511Z,3.85
2022-08-08T08:55:59.259Z,2.53
2022-08-08T08:58:41.581Z,2.65
2022-08-08T09:01:13.121Z,2.55
2022-08-08T09:03:47.105Z,3.05
2022-08-08T09:06:34.155Z,6.10
2022-08-08T09:09:26.215Z,12.95
2022-08-08T09:12:07.631Z,6.97
2022-08-08T09:14:42.097Z,4.10
2022-08-08T09:17:17.363Z,4.95
2022-08-08T09:22:00.131Z,4.82
2022-08-08T09:22:35.731Z,10.18
2022-08-08T09:25:04.737Z,6.95
2022-08-08T09:27:56.979Z,9.15
2022-08-08T09:30:20.144Z,9.77
2022-08-08T09:33:11.856Z,7.78
2022-08-08T09:35:49.059Z,4.95
2022-08-08T09:38:31.856Z,4.93
2022-08-08T09:41:05.037Z,5.45
2022-08-08T09:43:40.864Z,3.38
2022-08-08T09:46:31.096Z,4.85
2022-08-08T09:49:18.211Z,2.70
2022-08-08T09:52:06.719Z,3.97
2022-08-08T09:54:45.772Z,3.53
2022-08-08T09:57:19.034Z,2.58
2022-08-08T10:00:21.035Z,2.45
2022-08-08T10:02:41.089Z,3.00
2022-08-08T10:05:15.167Z,4.07
2022-08-08T10:07:51.549Z,3.17
2022-08-08T10:10:50.101Z,2.95
2022-08-08T10:13:26.067Z,6.10
2022-08-08T10:18:35.772Z,4.00
2022-08-08T10:21:26.161Z,2.50
2022-08-08T10:23:59.991Z,1.90
2022-08-08T10:26:57.268Z,2.10
2022-08-08T10:29:38.382Z,3.85
2022-08-08T10:32:33.987Z,2.88
2022-08-08T10:35:11.862Z,2.80
2022-08-08T10:38:07.983Z,2.50
2022-08-08T10:40:38.480Z,1.85
2022-08-08T10:43:07.194Z,3.80
2022-08-08T10:45:56.411Z,1.77
2022-08-08T10:48:38.869Z,1.75
2022-08-08T10:51:30.873Z,2.35
2022-08-08T10:54:00.219Z,2.15
2022-08-08T10:56:36.382Z,4.85
2022-08-08T10:59:14.107Z,4.05
2022-08-08T11:01:49.347Z,1.58
2022-08-08T11:04:39.292Z,2.03
2022-08-08T11:07:07.229Z,1.30
2022-08-08T11:09:35.252Z,2.13
2022-08-08T11:12:12.548Z,1.50
2022-08-08T11:14:57.365Z,1.70
2022-08-08T11:17:59.934Z,4.50
2022-08-08T11:20:18.070Z,3.90
2022-08-08T11:22:54.323Z,5.57
2022-08-08T11:25:53.057Z,5.25
2022-08-08T11:28:16.886Z,17.33
2022-08-08T11:30:50.285Z,8.60
2022-08-08T11:33:53.135Z,17.58
2022-08-08T11:36:13.431Z,6.43
2022-08-08T11:38:53.937Z,6.70
2022-08-08T11:41:24.406Z,6.65
2022-08-08T11:43:53.925Z,5.47
2022-08-08T11:46:28.025Z,10.68
2022-08-08T11:48:58.380Z,8.35
2022-08-08T11:51:29.910Z,7.20
2022-08-08T11:56:58.323Z,6.90
2022-08-08T12:00:01.306Z,7.88
2022-08-08T12:02:41.697Z,21.02
2022-08-08T12:05:12.514Z,5.03
2022-08-08T12:07:50.299Z,4.88
2022-08-08T12:10:24.968Z,7.85
2022-08-08T12:13:01.145Z,16.95
2022-08-08T12:15:42.704Z,11.25
2022-08-08T12:18:27.749Z,11.75
2022-08-08T12:20:58.769Z,3.90
2022-08-08T12:23:42.736Z,2.88
2022-08-08T12:26:41.649Z,5.35
2022-08-08T12:29:42.068Z,2.47
2022-08-08T12:32:20.115Z,4.78
2022-08-08T12:35:04.161Z,2.50
2022-08-08T12:37:41.586Z,3.80
2022-08-08T12:40:23.747Z,3.88
2022-08-08T12:42:52.817Z,2.78
2022-08-08T12:45:58.516Z,3.47
2022-08-08T12:48:38.064Z,4.43
2022-08-08T12:51:11.448Z,3.38
2022-08-08T12:53:58.773Z,12.75
2022-08-08T12:56:38.071Z,3.80
2022-08-08T12:59:27.193Z,4.07
2022-08-08T13:01:56.845Z,4.32
2022-08-08T13:04:26.993Z,4.00
2022-08-08T13:07:11.947Z,5.55
2022-08-08T13:10:04.843Z,5.60
2022-08-08T13:12:44.472Z,9.23
2022-08-08T13:15:19.516Z,9.32
2022-08-08T13:17:54.046Z,2.50
2022-08-08T13:20:45.515Z,6.85
2022-08-08T13:23:41.782Z,3.28
2022-08-08T13:26:14.661Z,5.68
2022-08-08T13:28:45.920Z,6.35
2022-08-08T13:31:17.137Z,17.65
2022-08-08T13:33:49.715Z,8.30
2022-08-08T13:36:25.741Z,29.85
2022-08-08T13:38:53.611Z,15.73
2022-08-08T13:41:21.811Z,7.38
2022-08-08T13:43:49.788Z,6.25
2022-08-08T13:46:27.098Z,4.63
2022-08-08T13:49:11.437Z,2.92
2022-08-08T13:52:35.759Z,5.60
2022-08-08T13:55:06.554Z,18.10
2022-08-08T13:58:07.049Z,8.18
2022-08-08T14:00:23.399Z,3.45
2022-08-08T14:03:07.682Z,3.50
2022-08-08T14:05:57.642Z,2.45
2022-08-08T14:08:29.878Z,6.32
2022-08-08T14:11:01.776Z,6.75
2022-08-08T14:13:34.311Z,3.13
2022-08-08T14:16:15.873Z,7.32
2022-08-08T14:18:58.179Z,5.43
2022-08-08T14:21:48.836Z,1.98
2022-08-08T14:24:34.830Z,5.30
2022-08-08T14:27:07.884Z,6.50
2022-08-08T14:29:40.325Z,8.75
2022-08-08T14:32:12.767Z,6.30
2022-08-08T14:34:53.542Z,5.82
2022-08-08T14:37:27.823Z,5.85
2022-08-08T14:40:05.971Z,4.78
2022-08-08T14:42:54.462Z,6.07
2022-08-08T14:45:33.101Z,2.53
2022-08-08T14:48:16.489Z,18.30
2022-08-08T14:50:46.932Z,3.30
2022-08-08T14:53:16.575Z,4.53
2022-08-08T14:55:45.104Z,17.90
2022-08-08T14:58:19.726Z,6.47
2022-08-08T15:00:49.435Z,4.35
2022-08-08T15:03:17.501Z,5.57
2022-08-08T15:05:54.297Z,6.90
2022-08-08T15:08:35.252Z,2.25
2022-08-08T15:11:19.195Z,4.78
2022-08-08T15:14:03.008Z,5.60
2022-08-08T15:16:34.241Z,2.08
2022-08-08T15:19:02.476Z,6.55
2022-08-08T15:21:30.167Z,2.97
2022-08-08T15:23:58.042Z,3.97
2022-08-08T15:26:28.955Z,3.88
2022-08-08T15:28:57.366Z,5.45
2022-08-08T15:31:55.527Z,3.08
2022-08-08T15:34:28.795Z,3.90
2022-08-08T15:37:04.993Z,2.67
2022-08-08T15:39:38.196Z,5.82
2022-08-08T15:42:10.259Z,4.85
2022-08-08T15:44:40.637Z,9.40
2022-08-08T15:47:16.047Z,12.95
2022-08-08T15:49:49.272Z,19.20
2022-08-08T15:52:18.384Z,8.33
2022-08-08T15:54:51.609Z,22.73
2022-08-08T15:57:21.970Z,11.43
2022-08-08T16:00:25.344Z,8.20
2022-08-08T16:02:44.588Z,7.93
2022-08-08T16:05:23.541Z,4.43
2022-08-08T16:07:53.875Z,13.13
2022-08-08T16:13:04.199Z,6.07
2022-08-08T16:13:30.874Z,4.38
2022-08-08T16:16:09.086Z,4.13
2022-08-08T16:18:40.869Z,18.20
2022-08-08T16:21:26.091Z,14.00
2022-08-08T16:23:56.911Z,11.48
2022-08-08T16:26:34.460Z,6.82
2022-08-08T16:29:08.956Z,9.07
2022-08-08T16:31:41.270Z,11.35
2022-08-08T16:34:10.336Z,9.63
2022-08-08T16:36:42.458Z,7.93
2022-08-08T16:39:28.062Z,7.53
2022-08-08T16:42:01.070Z,8.95
2022-08-08T16:44:34.248Z,6.60
2022-08-08T16:47:40.471Z,8.57
2022-08-08T16:50:15.589Z,7.53
2022-08-08T16:55:00.955Z,8.93
2022-08-08T16:55:53.446Z,5.68
2022-08-08T16:58:25.547Z,8.35
2022-08-08T17:00:53.836Z,8.70
2022-08-08T17:03:25.310Z,5.60
2022-08-08T17:06:36.032Z,7.38
2022-08-08T17:08:57.182Z,7.43
2022-08-08T17:11:28.074Z,4.13
2022-08-08T17:14:17.766Z,4.45
2022-08-08T17:16:51.863Z,4.70
2022-08-08T17:19:25.483Z,3.85
2022-08-08T17:21:54.484Z,4.22
2022-08-08T17:24:27.814Z,4.13
2022-08-08T17:26:58.040Z,4.07
2022-08-08T17:29:26.881Z,5.18
2022-08-08T17:31:53.824Z,3.88
2022-08-08T17:34:48.454Z,5.28
2022-08-08T17:37:09.272Z,2.70
2022-08-08T17:40:03.572Z,8.50
2022-08-08T17:42:27.954Z,5.88
2022-08-08T17:44:55.150Z,2.92
2022-08-08T17:47:28.223Z,4.20
2022-08-08T17:50:06.330Z,8.82
2022-08-08T17:52:35.530Z,11.73
2022-08-08T17:57:38.427Z,92.40
2022-08-08T18:00:13.361Z,131.93
2022-08-08T18:02:58.094Z,210.90
2022-08-08T18:05:48.315Z,202.20
2022-08-08T18:08:38.386Z,158.77
2022-08-08T18:11:17.052Z,92.20
2022-08-08T18:13:46.335Z,78.95
2022-08-08T18:16:20.459Z,93.72
2022-08-08T18:18:56.398Z,116.57
2022-08-08T18:22:00.109Z,114.82
2022-08-08T18:24:21.459Z,116.97
2022-08-08T18:26:54.484Z,96.88
2022-08-08T18:29:29.750Z,89.10
2022-08-08T18:31:59.310Z,87.50
2022-08-08T18:34:27.772Z,70.32
2022-08-08T18:36:55.981Z,68.75
2022-08-08T18:39:27.816Z,71.55
2022-08-08T18:41:59.744Z,60.83
2022-08-08T18:44:34.733Z,56.67
2022-08-08T18:47:03.487Z,53.83
2022-08-08T18:49:54.803Z,58.67
2022-08-08T18:52:22.793Z,42.47
2022-08-08T18:57:31.638Z,44.45
2022-08-08T19:02:30.219Z,36.95
2022-08-08T19:04:57.435Z,34.45
2022-08-08T19:07:29.982Z,25.20
2022-08-08T19:10:14.653Z,29.77
2022-08-08T19:12:44.686Z,32.00
2022-08-08T19:15:21.791Z,28.33
2022-08-08T19:18:32.461Z,30.17
2022-08-08T19:20:40.213Z,29.75
2022-08-08T19:23:10.931Z,34.65
2022-08-08T19:26:19.750Z,42.55
2022-08-08T19:28:25.740Z,26.02
2022-08-08T19:31:04.244Z,26.98
2022-08-08T19:33:51.849Z,22.02
2022-08-08T19:36:27.507Z,20.65
2022-08-08T19:38:56.404Z,21.10
2022-08-08T19:41:33.651Z,22.00
2022-08-08T19:44:12.844Z,23.25
2022-08-08T19:46:50.855Z,17.52
2022-08-08T19:49:19.061Z,25.40
2022-08-08T19:51:46.282Z,19.05
2022-08-08T19:54:16.276Z,20.73
2022-08-08T19:56:48.811Z,15.52
2022-08-08T19:59:22.233Z,18.23
2022-08-08T20:02:03.090Z,17.70
2022-08-08T20:04:33.485Z,15.98
2022-08-08T20:08:30.226Z,16.13
2022-08-08T20:09:56.222Z,14.40
2022-08-08T20:15:14.968Z,10.57
2022-08-08T20:17:46.349Z,11.32
2022-08-08T20:20:19.021Z,10.25
2022-08-08T20:22:52.599Z,15.98
2022-08-08T20:25:26.407Z,9.65
2022-08-08T20:27:57.414Z,13.35
2022-08-08T20:30:53.039Z,14.60
2022-08-08T20:35:58.190Z,11.15
2022-08-08T20:38:32.195Z,8.18
2022-08-08T20:41:16.961Z,12.45
2022-08-08T20:43:49.569Z,20.08
2022-08-08T20:46:25.336Z,30.10
2022-08-08T20:48:58.307Z,11.77
2022-08-08T20:51:32.378Z,8.88
2022-08-08T20:54:13.815Z,7.10
2022-08-08T20:59:29.613Z,8.60
2022-08-08T21:02:06.670Z,5.45
2022-08-08T21:04:36.922Z,9.80
2022-08-08T21:07:13.240Z,8.10
2022-08-08T21:10:02.242Z,10.30
2022-08-08T21:12:37.002Z,15.88
2022-08-08T21:15:09.460Z,10.82
2022-08-08T21:17:37.295Z,11.15
2022-08-08T21:20:06.550Z,5.97
2022-08-08T21:22:34.312Z,10.02
2022-08-08T21:25:02.100Z,7.35
2022-08-08T21:28:05.358Z,5.95
2022-08-08T21:30:21.659Z,6.15
2022-08-08T21:32:52.059Z,5.10
2022-08-08T21:36:15.114Z,7.13
2022-08-08T21:38:16.481Z,4.10
2022-08-08T21:40:55.984Z,6.45
2022-08-08T21:43:32.974Z,5.68
2022-08-08T21:48:07.424Z,5.22
2022-08-08T21:48:51.778Z,4.40
2022-08-08T21:52:09.744Z,3.40
2022-08-08T21:54:31.914Z,2.85
2022-08-08T21:56:56.146Z,5.13
2022-08-08T21:59:23.279Z,3.20
2022-08-08T22:01:52.295Z,5.32
2022-08-08T22:04:24.781Z,3.30
2022-08-08T22:06:53.632Z,2.78
2022-08-08T22:09:26.910Z,4.40
2022-08-08T22:12:09.286Z,3.40
2022-08-08T22:14:37.132Z,2.50
2022-08-08T22:17:05.426Z,2.92
2022-08-08T22:20:13.046Z,3.38
2022-08-08T22:22:24.405Z,4.57
2022-08-08T22:24:55.841Z,2.58
2022-08-08T22:27:38.903Z,3.35
2022-08-08T22:30:13.546Z,2.05
2022-08-08T22:32:40.953Z,4.17
2022-08-08T22:35:08.651Z,2.58
2022-08-08T22:37:53.850Z,2.03
2022-08-08T22:40:22.061Z,1.55
2022-08-08T22:42:49.091Z,2.33
2022-08-08T22:45:16.873Z,1.25
2022-08-08T22:47:47.413Z,1.73
2022-08-08T22:50:25.883Z,2.20
2022-08-08T22:54:28.373Z,2.58
2022-08-08T22:55:59.007Z,1.63
2022-08-08T22:58:33.939Z,2.13
2022-08-08T23:01:30.564Z,1.48
2022-08-08T23:03:55.565Z,1.98
2022-08-08T23:06:25.121Z,2.28
2022-08-08T23:08:55.352Z,1.30
2022-08-08T23:11:30.969Z,1.70
2022-08-08T23:14:15.714Z,4.45
2022-08-08T23:16:47.011Z,1.98
2022-08-08T23:19:21.728Z,2.97
2022-08-08T23:21:48.828Z,2.00
2022-08-08T23:24:22.363Z,5.35
2022-08-08T23:26:53.117Z,3.15
2022-08-08T23:29:25.154Z,1.75
2022-08-08T23:31:52.322Z,2.20
2022-08-08T23:34:19.897Z,2.03
2022-08-08T23:36:48.206Z,2.47
2022-08-08T23:39:15.964Z,2.45
2022-08-08T23:41:46.063Z,2.97
2022-08-08T23:44:18.698Z,1.98
2022-08-08T23:49:00.077Z,2.60
2022-08-08T23:49:34.179Z,2.58
2022-08-08T23:52:05.956Z,2.65
2022-08-08T23:54:43.540Z,1.10
2022-08-08T23:57:38.812Z,4.50
